Time;durP1;ratioP1;P1;durP2;ratioP2;P2;SDS_P1;SDS_P2;PMS_P1;PMS_P2;Temp;Humidity;BMP_temperature;BMP_pressure;BME280_temperature;BME280_humidity;BME280_pressure;Samples;Min_cycle;Max_cycle;Signal;HPM_P1;HPM_P2
2023/09/06 00:01:22;;;;;;;7.93;4.65;;;;;;;18.52;82.21;95715.22;5017206;28;20399;-77
2023/09/06 00:03:47;;;;;;;6.10;4.78;;;;;;;18.26;82.22;95679.41;5024034;28;20024;-79
2023/09/06 00:06:13;;;;;;;7.50;5.20;;;;;;;18.40;83.07;95692.72;5046971;22;20099;-82
2023/09/06 00:08:38;;;;;;;5.93;4.68;;;;;;;18.57;83.10;95718.91;5033514;28;20116;-82
2023/09/06 00:11:06;;;;;;;9.48;4.57;;;;;;;18.49;82.47;95696.25;5051122;28;20128;-82
2023/09/06 00:13:33;;;;;;;5.65;4.40;;;;;;;18.41;82.61;95683.56;5050914;28;20033;-82
2023/09/06 00:16:03;;;;;;;6.95;5.15;;;;;;;18.51;81.70;95700.22;5032741;28;20131;-82
2023/09/06 00:18:29;;;;;;;6.78;5.00;;;;;;;18.38;81.86;95681.53;5050726;28;20047;-82
2023/09/06 00:21:44;;;;;;;7.78;5.03;;;;;;;18.42;81.42;95698.59;5051206;28;20037;-82
2023/09/06 00:24:12;;;;;;;7.63;4.75;;;;;;;17.88;81.84;95638.81;5032887;28;20121;-82
2023/09/06 00:26:39;;;;;;;8.98;5.50;;;;;;;17.89;82.29;95666.44;5050998;28;20043;-82
2023/09/06 00:29:05;;;;;;;7.32;5.38;;;;;;;18.21;82.37;95711.78;5032998;28;20171;-82
2023/09/06 00:31:31;;;;;;;7.53;5.53;;;;;;;18.18;82.24;95695.47;5050692;28;20033;-82
2023/09/06 00:33:56;;;;;;;8.43;5.65;;;;;;;18.25;82.25;95709.25;5032786;28;20119;-82
2023/09/06 00:36:22;;;;;;;8.55;5.28;;;;;;;18.12;81.71;95676.84;5051461;28;20065;-82
2023/09/06 00:38:47;;;;;;;6.00;5.15;;;;;;;18.12;82.44;95678.72;5036549;28;20143;-82
2023/09/06 00:41:13;;;;;;;5.55;4.93;;;;;;;18.08;83.05;95665.09;5036558;28;20028;-82
2023/09/06 00:43:38;;;;;;;8.07;5.70;;;;;;;18.06;82.04;95670.00;5053034;28;20036;-82
2023/09/06 00:46:07;;;;;;;9.60;5.72;;;;;;;18.25;81.78;95696.63;5036375;28;20029;-82
2023/09/06 00:48:34;;;;;;;13.73;5.97;;;;;;;18.27;83.01;95694.44;5054306;28;20036;-82
2023/09/06 00:51:01;;;;;;;12.30;5.80;;;;;;;18.11;82.18;95685.97;5036679;28;20033;-82
2023/09/06 00:53:27;;;;;;;5.05;4.55;;;;;;;17.88;82.57;95638.81;5036589;28;20056;-82
2023/09/06 00:55:52;;;;;;;6.95;5.07;;;;;;;18.04;83.00;95650.75;5036033;28;20452;-82
2023/09/06 00:58:20;;;;;;;11.48;6.70;;;;;;;18.29;82.71;95678.00;5053985;28;20132;-83
2023/09/06 01:00:49;;;;;;;8.25;5.47;;;;;;;18.33;83.31;95682.44;5053756;28;20610;-82
2023/09/06 01:03:16;;;;;;;9.60;5.65;;;;;;;18.21;82.66;95657.28;5036824;28;20025;-82
2023/09/06 01:05:55;;;;;;;7.78;5.57;;;;;;;18.24;82.15;95670.06;5035972;28;20049;-82
2023/09/06 01:08:31;;;;;;;10.00;5.05;;;;;;;18.04;81.71;95644.56;5054761;28;20037;-82
2023/09/06 01:11:20;;;;;;;9.25;5.22;;;;;;;18.20;81.69;95691.41;5041631;28;20135;-83
2023/09/06 01:14:01;;;;;;;6.05;5.20;;;;;;;18.10;82.01;95678.22;5057203;28;20032;-83
2023/09/06 01:16:30;;;;;;;6.72;5.47;;;;;;;18.03;82.02;95665.25;5058501;28;20040;-83
2023/09/06 01:18:56;;;;;;;7.47;5.80;;;;;;;18.06;82.31;95655.81;5058602;28;20150;-83
2023/09/06 01:21:26;;;;;;;9.23;6.10;;;;;;;18.16;82.37;95678.91;5058840;28;20060;-83
2023/09/06 01:23:53;;;;;;;7.93;5.65;;;;;;;18.02;82.45;95647.56;5040878;28;20037;-83
2023/09/06 01:26:19;;;;;;;9.50;5.82;;;;;;;18.29;83.32;95684.19;5041438;28;20064;-83
2023/09/06 01:28:44;;;;;;;9.15;5.60;;;;;;;18.17;83.73;95665.16;5059072;28;20032;-83
2023/09/06 01:31:10;;;;;;;7.15;5.50;;;;;;;18.32;84.14;95674.69;5041898;28;20490;-83
2023/09/06 01:33:35;;;;;;;6.50;5.28;;;;;;;18.18;84.04;95663.25;5042514;28;20047;-83
2023/09/06 01:36:01;;;;;;;8.95;6.30;;;;;;;18.39;84.11;95681.19;5042869;28;20029;-83
2023/09/06 01:38:26;;;;;;;10.50;5.72;;;;;;;18.22;83.59;95656.19;5042570;28;20098;-83
2023/09/06 01:40:53;;;;;;;8.55;5.90;;;;;;;18.35;84.18;95674.09;5043378;28;20048;-83
2023/09/06 01:43:18;;;;;;;10.88;6.25;;;;;;;18.41;83.90;95675.53;5041982;28;20061;-83
2023/09/06 01:45:54;;;;;;;9.90;6.47;;;;;;;18.56;83.26;95679.66;5060882;28;20170;-83
2023/09/06 01:48:20;;;;;;;9.57;6.57;;;;;;;18.13;83.22;95615.88;5059522;28;20094;-83
2023/09/06 01:50:47;;;;;;;11.20;6.00;;;;;;;18.22;82.72;95653.50;5041837;28;20045;-83
2023/09/06 01:53:15;;;;;;;8.50;5.80;;;;;;;18.18;82.84;95656.00;5058249;28;20124;-83
2023/09/06 01:55:42;;;;;;;8.43;6.43;;;;;;;18.36;83.20;95660.34;5041460;28;20037;-83
2023/09/06 01:58:12;;;;;;;22.67;7.28;;;;;;;18.43;83.89;95663.38;5042331;28;20090;-83
2023/09/06 02:00:37;;;;;;;10.15;7.30;;;;;;;18.20;83.41;95635.03;5041109;28;20033;-83
2023/09/06 02:03:06;;;;;;;6.45;5.40;;;;;;;17.89;82.42;95580.59;5059702;28;20032;-83
2023/09/06 02:05:31;;;;;;;8.13;5.95;;;;;;;18.40;81.69;95668.56;5040954;28;20049;-83
2023/09/06 02:07:58;;;;;;;8.15;6.43;;;;;;;18.34;82.56;95678.66;5059107;28;20047;-83
2023/09/06 02:10:24;;;;;;;8.35;6.13;;;;;;;17.92;82.41;95631.75;5041579;28;20369;-83
2023/09/06 02:12:49;;;;;;;10.02;5.90;;;;;;;18.00;82.78;95640.94;5058151;28;20102;-83
2023/09/06 02:15:15;;;;;;;10.23;6.47;;;;;;;18.27;82.28;95675.63;5059257;28;20098;-83
2023/09/06 02:17:44;;;;;;;8.18;5.68;;;;;;;18.28;82.42;95674.53;5059646;28;20118;-83
2023/09/06 02:20:17;;;;;;;8.77;6.72;;;;;;;18.29;82.13;95669.97;5039416;28;20048;-81
2023/09/06 02:22:56;;;;;;;11.57;5.95;;;;;;;18.32;81.67;95670.13;5056200;28;20037;-81
2023/09/06 02:25:29;;;;;;;14.57;6.65;;;;;;;18.29;81.75;95676.13;5038139;28;20036;-81
2023/09/06 02:27:55;;;;;;;10.35;6.30;;;;;;;18.19;82.40;95662.16;5055966;28;20105;-81
2023/09/06 02:30:21;;;;;;;7.63;6.15;;;;;;;18.02;83.24;95641.41;5037948;28;20112;-81
2023/09/06 02:32:51;;;;;;;9.00;6.47;;;;;;;18.34;82.77;95684.03;5037742;28;20037;-81
2023/09/06 02:35:17;;;;;;;6.78;6.03;;;;;;;18.03;81.75;95662.56;5056027;28;20033;-81
2023/09/06 02:37:43;;;;;;;12.63;6.20;;;;;;;18.08;82.17;95669.69;5038301;28;20098;-81
2023/09/06 02:40:18;;;;;;;9.15;6.47;;;;;;;17.92;82.33;95641.69;5037948;28;20051;-82
2023/09/06 02:42:44;;;;;;;8.40;6.22;;;;;;;17.71;82.21;95593.91;5055669;28;20036;-81
2023/09/06 02:45:13;;;;;;;8.63;6.30;;;;;;;17.98;82.07;95645.81;5037195;28;20425;-81
2023/09/06 02:47:48;;;;;;;8.00;5.72;;;;;;;17.95;81.61;95652.59;5054687;28;20041;-80
2023/09/06 02:50:14;;;;;;;15.75;6.97;;;;;;;17.93;81.97;95654.78;5037122;28;20041;-81
2023/09/06 02:52:44;;;;;;;8.02;6.35;;;;;;;18.10;81.67;95675.53;5056494;28;20507;-81
2023/09/06 02:55:13;;;;;;;12.38;6.80;;;;;;;18.10;81.27;95678.22;5056010;28;20126;-81
2023/09/06 02:57:40;;;;;;;13.02;7.30;;;;;;;17.92;81.31;95647.06;5056335;28;20571;-81
2023/09/06 03:00:24;;;;;;;10.18;6.35;;;;;;;17.74;81.72;95630.06;5036920;28;20044;-81
2023/09/06 03:02:50;;;;;;;9.07;6.85;;;;;;;17.98;81.16;95680.72;5055555;28;20539;-81
2023/09/06 03:05:17;;;;;;;10.18;6.47;;;;;;;17.93;80.97;95681.59;5055371;28;20048;-81
2023/09/06 03:07:50;;;;;;;10.75;7.40;;;;;;;17.33;81.80;95598.88;5055999;28;20487;-81
2023/09/06 03:10:19;;;;;;;11.88;6.70;;;;;;;17.87;82.61;95696.25;5037450;28;20090;-81
2023/09/06 03:12:54;;;;;;;9.45;6.18;;;;;;;17.70;82.01;95650.53;5055912;28;20044;-81
2023/09/06 03:15:22;;;;;;;10.55;6.40;;;;;;;17.85;81.66;95681.59;5054997;28;20116;-81
2023/09/06 03:17:49;;;;;;;11.25;7.53;;;;;;;17.59;81.76;95646.50;5037204;28;20033;-81
2023/09/06 03:20:47;;;;;;;12.43;7.35;;;;;;;17.34;82.20;95613.06;5054148;28;20529;-81
2023/09/06 03:23:18;;;;;;;17.13;7.30;;;;;;;17.72;82.64;95665.25;5053213;28;20044;-81
2023/09/06 03:25:48;;;;;;;13.38;7.38;;;;;;;17.84;83.72;95674.63;5055360;28;20108;-81
2023/09/06 03:28:15;;;;;;;16.02;7.53;;;;;;;17.56;83.68;95631.81;5053999;28;20036;-82
2023/09/06 03:30:41;;;;;;;14.70;7.50;;;;;;;17.72;84.00;95645.66;5035503;28;20127;-82
2023/09/06 03:33:06;;;;;;;8.95;7.00;;;;;;;17.72;82.91;95643.78;5052099;28;20503;-82
2023/09/06 03:35:32;;;;;;;13.50;7.38;;;;;;;17.76;82.92;95654.69;5033688;28;20041;-82
2023/09/06 03:38:02;;;;;;;18.88;7.38;;;;;;;17.60;82.39;95632.81;5033710;28;20048;-82
2023/09/06 03:40:37;;;;;;;12.60;7.22;;;;;;;17.70;83.33;95643.28;5051819;28;20049;-82
2023/09/06 03:43:17;;;;;;;9.85;7.20;;;;;;;17.82;82.96;95656.16;5051942;28;20120;-82
2023/09/06 03:45:51;;;;;;;8.75;7.25;;;;;;;18.05;82.05;95687.22;5033998;28;20373;-82
2023/09/06 03:48:19;;;;;;;13.93;6.88;;;;;;;17.59;80.77;95622.38;5051892;28;20371;-82
2023/09/06 03:50:45;;;;;;;8.77;6.38;;;;;;;17.84;80.58;95666.59;5033900;28;20079;-82
2023/09/06 03:53:13;;;;;;;12.70;6.18;;;;;;;17.89;80.82;95694.06;5051431;28;20405;-82
2023/09/06 03:55:38;;;;;;;15.20;6.93;;;;;;;17.89;80.92;95704.00;5033701;28;20040;-82
2023/09/06 03:58:07;;;;;;;8.90;6.47;;;;;;;17.85;81.52;95686.94;5051427;28;20082;-82
2023/09/06 04:00:32;;;;;;;15.88;8.32;;;;;;;17.65;81.77;95653.34;5033082;28;20033;-82
2023/09/06 04:02:58;;;;;;;12.50;7.32;;;;;;;17.83;82.51;95686.47;5051441;28;20035;-82
2023/09/06 04:05:25;;;;;;;15.73;7.93;;;;;;;17.75;81.93;95666.53;5033504;28;20427;-82
2023/09/06 04:07:58;;;;;;;15.15;7.38;;;;;;;17.74;82.37;95670.31;5033882;28;20064;-82
2023/09/06 04:10:36;;;;;;;16.52;8.13;;;;;;;17.93;82.92;95692.34;5034290;28;20036;-82
2023/09/06 04:13:12;;;;;;;21.98;9.07;;;;;;;18.00;82.61;95708.03;5055135;28;20056;-82
2023/09/06 04:15:40;;;;;;;18.88;8.05;;;;;;;18.05;82.27;95707.91;5037800;28;20159;-82
2023/09/06 04:18:07;;;;;;;22.15;8.60;;;;;;;17.61;81.85;95634.41;5055185;28;20044;-82
2023/09/06 04:20:36;;;;;;;17.35;9.27;;;;;;;17.98;82.68;95692.22;5055500;28;20492;-82
2023/09/06 04:23:12;;;;;;;26.05;10.30;;;;;;;18.12;82.83;95713.63;5055220;28;20059;-82
2023/09/06 04:25:41;;;;;;;26.05;9.75;;;;;;;17.93;83.12;95675.44;5037069;28;20136;-82
2023/09/06 04:28:08;;;;;;;16.25;9.68;;;;;;;18.17;83.10;95704.63;5055443;28;20032;-82
2023/09/06 04:30:36;;;;;;;19.08;9.55;;;;;;;18.08;82.69;95696.53;5037139;28;20093;-82
2023/09/06 04:33:05;;;;;;;15.52;8.90;;;;;;;18.16;82.22;95711.88;5055040;28;20040;-82
2023/09/06 04:35:37;;;;;;;16.02;8.95;;;;;;;18.20;81.43;95720.91;5036993;28;20029;-82
2023/09/06 04:38:02;;;;;;;31.35;10.27;;;;;;;18.06;82.04;95694.19;5036884;28;20037;-82
2023/09/06 04:40:31;;;;;;;24.98;9.80;;;;;;;18.27;82.29;95718.59;5051158;22;20060;-78
2023/09/06 04:42:57;;;;;;;12.23;8.13;;;;;;;17.89;80.67;95688.69;5037003;28;20037;-79
2023/09/06 04:45:22;;;;;;;16.90;7.72;;;;;;;18.03;81.77;95692.09;5056714;28;20039;-79
2023/09/06 04:47:48;;;;;;;19.30;8.35;;;;;;;18.28;81.83;95728.22;5057029;28;20104;-79
2023/09/06 04:50:13;;;;;;;16.67;9.32;;;;;;;18.18;81.37;95698.94;5057525;28;20037;-79
2023/09/06 04:52:53;;;;;;;14.18;9.00;;;;;;;18.32;81.95;95714.97;5074927;28;20104;-79
2023/09/06 04:55:19;;;;;;;18.02;9.13;;;;;;;18.23;82.15;95690.00;5072839;28;20033;-79
2023/09/06 04:57:46;;;;;;;16.48;9.32;;;;;;;18.38;81.21;95730.66;5073876;28;20088;-79
2023/09/06 05:00:47;;;;;;;18.48;9.32;;;;;;;18.44;80.88;95725.94;5055846;28;20037;-79
2023/09/06 05:03:11;;;;;;;14.32;8.57;;;;;;;18.43;81.14;95722.47;5070014;28;20152;-79
2023/09/06 05:05:37;;;;;;;13.82;8.85;;;;;;;18.49;81.36;95737.31;5072663;28;20009;-79
2023/09/06 05:08:04;;;;;;;28.73;8.65;;;;;;;18.19;82.22;95689.81;5072465;28;20036;-79
2023/09/06 05:10:30;;;;;;;18.33;8.18;;;;;;;18.43;81.94;95733.19;5054961;28;20059;-79
2023/09/06 05:12:55;;;;;;;16.42;8.73;;;;;;;18.44;82.23;95731.31;5055222;28;20029;-79
2023/09/06 05:15:21;;;;;;;12.13;8.63;;;;;;;18.51;83.24;95732.44;5055271;28;20055;-79
2023/09/06 05:17:46;;;;;;;16.92;10.68;;;;;;;18.53;83.61;95726.75;5071703;28;20064;-79
2023/09/06 05:20:32;;;;;;;17.90;8.98;;;;;;;18.62;83.05;95735.66;5071510;28;20160;-79
2023/09/06 05:23:03;;;;;;;18.45;8.43;;;;;;;18.58;82.42;95728.53;5053197;28;20057;-78
2023/09/06 05:25:30;;;;;;;19.75;8.73;;;;;;;18.63;81.98;95729.19;5053112;28;20029;-78
2023/09/06 05:28:05;;;;;;;16.20;8.60;;;;;;;18.70;81.61;95748.34;5053938;28;20048;-78
2023/09/06 05:30:33;;;;;;;16.38;8.52;;;;;;;18.75;81.47;95748.22;5053627;28;20102;-79
2023/09/06 05:32:59;;;;;;;17.92;8.55;;;;;;;18.63;81.19;95718.44;5054232;28;20032;-79
2023/09/06 05:35:24;;;;;;;15.60;8.73;;;;;;;18.73;81.68;95730.81;5052463;28;20055;-79
2023/09/06 05:37:50;;;;;;;18.40;8.30;;;;;;;18.75;82.87;95726.72;5068299;28;20072;-79
2023/09/06 05:40:22;;;;;;;16.85;8.65;;;;;;;18.99;82.75;95750.50;5051132;28;20053;-78
2023/09/06 05:42:48;;;;;;;10.77;7.57;;;;;;;18.88;80.93;95733.06;5051033;28;20040;-78
2023/09/06 05:45:13;;;;;;;16.67;8.35;;;;;;;18.82;81.81;95712.81;5068816;28;20028;-79
2023/09/06 05:47:39;;;;;;;16.92;7.72;;;;;;;19.02;80.67;95749.84;5068473;28;20051;-78
2023/09/06 05:50:08;;;;;;;15.00;7.30;;;;;;;19.05;80.39;95733.13;5068156;28;20052;-79
2023/09/06 05:52:34;;;;;;;12.98;6.85;;;;;;;19.07;80.00;95735.50;5049118;28;20028;-79
2023/09/06 05:55:01;;;;;;;14.15;6.75;;;;;;;19.08;78.06;95745.13;5040462;28;20082;-76
2023/09/06 05:57:26;;;;;;;11.55;6.55;;;;;;;19.23;78.70;95750.84;5057833;28;20079;-75
2023/09/06 05:59:52;;;;;;;10.20;6.63;;;;;;;19.37;78.11;95763.38;5039193;28;20057;-76
2023/09/06 06:02:17;;;;;;;9.95;7.18;;;;;;;19.16;77.96;95723.63;5057493;28;20079;-75
2023/09/06 06:04:46;;;;;;;12.68;6.10;;;;;;;19.43;76.53;95764.81;5039272;28;20090;-76
2023/09/06 06:07:16;;;;;;;9.18;6.25;;;;;;;19.37;75.10;95758.00;5057349;28;20054;-75
2023/09/06 06:09:42;;;;;;;11.05;6.32;;;;;;;19.49;75.35;95774.31;5038670;28;20024;-76
2023/09/06 06:12:10;;;;;;;14.48;7.43;;;;;;;19.49;75.37;95764.38;5057709;28;20056;-75
2023/09/06 06:14:36;;;;;;;18.98;6.47;;;;;;;19.32;74.76;95742.00;5039805;28;20036;-76
2023/09/06 06:17:04;;;;;;;11.23;6.93;;;;;;;19.56;74.93;95774.66;5057413;28;20059;-76
2023/09/06 06:19:29;;;;;;;15.63;6.82;;;;;;;19.51;75.44;95769.44;5057497;28;20064;-75
2023/09/06 06:21:54;;;;;;;9.85;6.57;;;;;;;19.47;73.83;95763.09;5039729;28;20025;-75
2023/09/06 06:24:20;;;;;;;16.33;6.45;;;;;;;19.58;74.52;95775.13;5058581;28;20020;-75
2023/09/06 06:26:45;;;;;;;9.95;6.63;;;;;;;19.64;73.99;95777.34;5057405;28;20107;-76
2023/09/06 06:29:11;;;;;;;9.38;6.43;;;;;;;19.48;72.49;95748.53;5040204;28;20041;-75
2023/09/06 06:31:36;;;;;;;14.50;6.05;;;;;;;19.56;73.89;95764.69;5039456;28;20036;-75
2023/09/06 06:35:16;;;;;;;12.60;5.32;;;;;;;19.64;71.69;95780.03;5038741;28;20059;-75
2023/09/06 06:37:41;;;;;;;7.40;5.70;;;;;;;19.84;71.54;95792.06;4938110;29;20127;-75
2023/09/06 06:40:07;;;;;;;9.32;5.63;;;;;;;19.68;70.52;95788.28;4956672;29;20078;-75
2023/09/06 06:42:34;;;;;;;11.40;5.57;;;;;;;19.69;71.21;95787.16;5002623;28;20435;-76
2023/09/06 06:44:59;;;;;;;10.55;5.82;;;;;;;19.78;69.45;95793.34;5038867;28;20033;-76
2023/09/06 06:47:25;;;;;;;11.20;5.97;;;;;;;19.93;69.75;95805.53;5056285;28;20043;-76
2023/09/06 06:49:51;;;;;;;16.17;5.50;;;;;;;19.68;67.76;95780.22;5056485;28;20059;-75
2023/09/06 06:52:16;;;;;;;14.30;5.78;;;;;;;19.96;68.27;95808.38;5038795;28;20136;-75
2023/09/06 06:54:42;;;;;;;10.27;5.97;;;;;;;19.86;67.93;95781.78;5039446;28;20083;-75
2023/09/06 06:57:07;;;;;;;12.65;5.68;;;;;;;20.02;68.27;95804.41;5038984;28;20060;-75
2023/09/06 06:59:34;;;;;;;10.00;6.20;;;;;;;19.98;67.92;95781.16;5038664;28;20036;-75
2023/09/06 07:02:00;;;;;;;12.43;5.55;;;;;;;20.10;67.84;95792.06;5056406;28;20039;-75
2023/09/06 07:04:25;;;;;;;10.90;5.97;;;;;;;20.21;68.34;95804.09;5056145;28;20403;-75
2023/09/06 07:06:51;;;;;;;13.50;5.50;;;;;;;20.26;66.97;95812.00;5056357;28;20071;-76
2023/09/06 07:09:16;;;;;;;15.65;6.22;;;;;;;20.30;67.71;95787.91;5056545;28;20045;-76
2023/09/06 07:11:42;;;;;;;11.35;5.57;;;;;;;20.20;68.02;95766.72;5037990;28;20066;-76
2023/09/06 07:14:08;;;;;;;12.75;6.13;;;;;;;20.56;67.76;95806.72;5038081;28;20384;-75
2023/09/06 07:16:33;;;;;;;13.75;6.45;;;;;;;20.60;65.50;95815.75;5039227;28;20024;-75
2023/09/06 07:18:59;;;;;;;13.05;6.20;;;;;;;20.69;66.28;95811.13;5039587;28;20033;-76
2023/09/06 07:21:25;;;;;;;9.38;6.72;;;;;;;20.59;65.33;95804.19;5038488;28;20037;-75
2023/09/06 07:23:51;;;;;;;17.55;6.85;;;;;;;20.37;65.13;95761.28;5055592;28;20024;-75
2023/09/06 07:26:16;;;;;;;16.35;7.13;;;;;;;20.83;63.58;95817.09;5038472;28;20028;-75
2023/09/06 07:28:45;;;;;;;12.55;7.07;;;;;;;20.95;64.26;95809.13;5056559;28;20037;-76
2023/09/06 07:31:11;;;;;;;17.10;6.68;;;;;;;20.86;63.24;95805.69;5020533;28;20043;-75
2023/09/06 07:33:37;;;;;;;13.90;6.60;;;;;;;20.78;62.07;95807.28;5036937;28;20056;-76
2023/09/06 07:36:04;;;;;;;13.43;6.43;;;;;;;20.87;62.63;95776.81;5036581;28;20033;-75
2023/09/06 07:38:29;;;;;;;14.07;6.57;;;;;;;20.85;62.49;95784.44;5036780;28;20380;-76
2023/09/06 07:41:03;;;;;;;17.63;6.68;;;;;;;21.18;62.29;95810.50;5054505;28;20052;-75
2023/09/06 07:43:29;;;;;;;18.92;7.40;;;;;;;21.24;61.51;95794.91;5054197;28;20054;-76
2023/09/06 07:46:02;;;;;;;11.27;6.00;;;;;;;21.29;60.49;95802.00;5053622;28;20021;-75
2023/09/06 07:48:29;;;;;;;10.40;5.75;;;;;;;21.44;60.38;95798.75;5037755;28;20460;-75
2023/09/06 07:50:56;;;;;;;12.30;5.95;;;;;;;21.48;60.69;95788.88;5037151;28;20564;-75
2023/09/06 07:53:23;;;;;;;12.88;5.78;;;;;;;21.44;60.41;95777.94;5037395;28;20037;-76
2023/09/06 07:55:49;;;;;;;9.85;6.03;;;;;;;21.47;60.20;95784.59;5036442;28;20028;-75
2023/09/06 07:58:15;;;;;;;9.98;6.93;;;;;;;21.52;59.73;95785.19;5036239;28;20032;-76
2023/09/06 08:00:41;;;;;;;14.10;6.45;;;;;;;21.52;60.24;95787.09;5036521;28;20025;-75
2023/09/06 08:03:07;;;;;;;10.45;5.65;;;;;;;21.48;60.03;95781.59;5036605;28;20508;-76
2023/09/06 08:05:35;;;;;;;14.35;6.10;;;;;;;21.63;60.48;95788.31;5036453;28;20033;-75
2023/09/06 08:08:01;;;;;;;10.40;6.15;;;;;;;21.72;59.57;95785.56;5036195;28;20124;-75
2023/09/06 08:10:27;;;;;;;8.38;6.07;;;;;;;21.65;58.36;95782.59;5054700;28;20048;-75
2023/09/06 08:12:52;;;;;;;9.90;6.15;;;;;;;21.82;60.03;95787.84;5054617;28;20040;-75
2023/09/06 08:15:18;;;;;;;11.00;6.72;;;;;;;21.84;59.28;95780.19;5041107;28;20033;-79
2023/09/06 08:17:47;;;;;;;10.45;6.90;;;;;;;22.05;57.27;95796.44;5045025;28;20108;-78
2023/09/06 08:20:16;;;;;;;10.75;6.55;;;;;;;21.89;57.68;95788.13;5042659;28;20033;-78
2023/09/06 08:22:43;;;;;;;13.48;6.95;;;;;;;21.94;57.67;95790.59;5060426;28;20094;-78
2023/09/06 08:25:08;;;;;;;18.42;8.00;;;;;;;21.91;57.97;95777.75;5061861;28;20033;-78
2023/09/06 08:27:34;;;;;;;15.88;7.53;;;;;;;21.83;56.81;95752.41;5041631;28;20031;-78
2023/09/06 08:29:59;;;;;;;13.65;7.95;;;;;;;21.97;57.09;95768.34;5059446;28;20060;-78
2023/09/06 08:32:25;;;;;;;12.05;7.63;;;;;;;22.17;55.91;95786.47;5043188;28;20066;-78
2023/09/06 08:34:50;;;;;;;13.88;5.95;;;;;;;22.23;55.67;95776.22;5041449;28;20029;-79
2023/09/06 08:37:16;;;;;;;18.20;6.75;;;;;;;22.29;54.45;95778.38;5059397;28;20090;-78
2023/09/06 08:39:41;;;;;;;13.10;6.75;;;;;;;22.49;54.00;95787.56;5041850;28;20053;-78
2023/09/06 08:42:07;;;;;;;12.18;5.85;;;;;;;22.42;53.98;95781.13;5043714;28;20032;-78
2023/09/06 08:44:35;;;;;;;12.18;6.88;;;;;;;22.37;51.80;95805.66;5045188;28;20029;-78
2023/09/06 08:47:04;;;;;;;11.00;6.10;;;;;;;22.33;53.34;95794.75;5041419;28;20044;-78
2023/09/06 08:49:30;;;;;;;9.25;6.32;;;;;;;22.49;53.09;95792.97;5045085;28;20423;-78
2023/09/06 08:51:56;;;;;;;10.25;6.45;;;;;;;22.63;52.19;95803.47;5042284;28;20048;-78
2023/09/06 08:54:23;;;;;;;14.95;7.00;;;;;;;22.29;52.04;95721.66;5059915;28;20021;-78
2023/09/06 08:56:50;;;;;;;10.43;6.60;;;;;;;22.81;51.98;95798.72;5060229;28;20103;-78
2023/09/06 08:59:17;;;;;;;19.08;7.50;;;;;;;22.92;51.17;95797.13;5047829;28;20032;-78
2023/09/06 09:01:43;;;;;;;14.18;6.43;;;;;;;22.88;51.62;95782.72;5047332;28;20021;-78
2023/09/06 09:04:09;;;;;;;9.10;6.18;;;;;;;23.04;51.24;95795.22;5067748;28;20252;-78
2023/09/06 09:06:35;;;;;;;12.57;6.43;;;;;;;23.01;51.09;95784.28;5065498;28;20073;-78
2023/09/06 09:09:16;;;;;;;11.48;6.03;;;;;;;23.31;50.43;95788.34;5042940;28;20033;-78
2023/09/06 09:11:48;;;;;;;7.97;6.25;;;;;;;23.31;50.72;95785.63;5063811;28;20079;-78
2023/09/06 09:14:25;;;;;;;10.35;6.18;;;;;;;23.45;48.90;95769.03;5048480;28;20016;-78
2023/09/06 09:16:55;;;;;;;12.00;6.22;;;;;;;23.60;49.78;95783.81;5045615;28;20037;-78
2023/09/06 09:19:21;;;;;;;12.32;6.55;;;;;;;23.58;49.36;95767.91;5065004;28;20448;-78
2023/09/06 09:21:49;;;;;;;15.88;5.95;;;;;;;23.57;49.20;95757.44;5044465;28;20082;-78
2023/09/06 09:24:24;;;;;;;11.23;6.53;;;;;;;23.77;49.17;95765.41;5059785;28;20510;-76
2023/09/06 09:26:50;;;;;;;12.55;6.63;;;;;;;23.89;48.33;95766.47;5038095;28;20056;-75
2023/09/06 09:29:16;;;;;;;12.93;6.90;;;;;;;23.82;48.60;95748.09;5055822;28;20033;-75
2023/09/06 09:31:42;;;;;;;10.40;5.90;;;;;;;23.91;47.90;95731.72;5038427;28;20484;-75
2023/09/06 09:34:07;;;;;;;13.07;7.03;;;;;;;24.31;47.38;95783.97;5055293;28;20093;-77
2023/09/06 09:36:34;;;;;;;14.50;7.50;;;;;;;24.29;47.95;95783.50;5055471;28;20349;-75
2023/09/06 09:39:09;;;;;;;20.65;6.60;;;;;;;24.46;47.77;95771.56;5038142;28;20033;-75
2023/09/06 09:41:35;;;;;;;10.80;6.82;;;;;;;24.45;47.67;95764.56;5055226;28;20029;-76
2023/09/06 09:44:13;;;;;;;14.05;6.80;;;;;;;24.48;47.33;95742.19;5037031;28;20456;-76
2023/09/06 09:46:41;;;;;;;13.50;7.25;;;;;;;24.70;47.53;95776.06;5038269;28;20025;-76
2023/09/06 09:49:08;;;;;;;15.50;6.95;;;;;;;24.82;47.28;95784.09;5037161;28;20029;-76
2023/09/06 09:51:35;;;;;;;15.60;6.82;;;;;;;25.00;45.65;95777.22;5037839;28;20025;-75
2023/09/06 09:54:03;;;;;;;14.27;6.55;;;;;;;25.20;45.10;95767.22;5037284;28;20025;-75
2023/09/06 09:56:29;;;;;;;16.88;6.93;;;;;;;25.05;44.84;95716.47;5037772;28;20142;-75
2023/09/06 09:58:56;;;;;;;10.27;6.60;;;;;;;25.41;45.03;95772.34;5037867;28;20027;-75
2023/09/06 10:01:22;;;;;;;13.65;6.55;;;;;;;25.41;44.81;95762.28;5037319;28;20466;-76
2023/09/06 10:03:49;;;;;;;13.07;6.25;;;;;;;25.25;45.50;95740.59;5055641;28;20017;-76
2023/09/06 10:06:16;;;;;;;13.15;6.80;;;;;;;25.59;45.27;95773.56;5055513;28;20043;-76
2023/09/06 10:08:45;;;;;;;12.30;6.55;;;;;;;25.85;44.55;95764.81;5037494;28;20032;-76
2023/09/06 10:11:13;;;;;;;7.22;5.65;;;;;;;25.64;43.74;95725.19;5054794;28;20033;-75
2023/09/06 10:13:39;;;;;;;11.55;6.30;;;;;;;25.73;43.38;95763.00;5037863;28;20587;-76
2023/09/06 10:16:06;;;;;;;11.25;5.72;;;;;;;25.67;43.90;95762.50;5037294;28;20094;-76
2023/09/06 10:18:32;;;;;;;10.68;6.40;;;;;;;25.59;44.36;95746.41;5037235;28;20032;-75
2023/09/06 10:20:59;;;;;;;10.55;6.10;;;;;;;25.23;43.81;95706.81;5036986;28;20388;-75
2023/09/06 10:23:31;;;;;;;11.95;6.20;;;;;;;25.38;44.03;95723.06;5037550;28;20044;-75
2023/09/06 10:25:59;;;;;;;11.07;6.05;;;;;;;25.66;44.31;95744.63;5037416;28;20047;-75
2023/09/06 10:28:25;;;;;;;14.27;6.80;;;;;;;25.71;43.32;95754.41;5055828;28;20068;-75
2023/09/06 10:31:07;;;;;;;8.63;6.20;;;;;;;25.64;42.66;95746.91;5055493;28;20102;-75
2023/09/06 10:33:35;;;;;;;10.35;6.85;;;;;;;25.68;43.39;95760.59;5038981;28;20120;-78
2023/09/06 10:36:12;;;;;;;10.55;6.13;;;;;;;25.51;43.96;95764.44;5065044;28;20415;-78
2023/09/06 10:38:55;;;;;;;9.15;6.03;;;;;;;25.59;43.70;95746.41;5062657;28;20032;-78
2023/09/06 10:41:22;;;;;;;10.15;6.45;;;;;;;25.36;44.08;95749.78;5026994;28;20103;-78
2023/09/06 10:44:09;;;;;;;11.95;6.60;;;;;;;25.46;44.14;95756.59;5023909;28;20029;-78
2023/09/06 10:46:35;;;;;;;11.45;6.70;;;;;;;25.37;43.99;95745.94;5024636;28;20038;-78
2023/09/06 10:49:22;;;;;;;14.52;6.80;;;;;;;25.30;43.71;95742.25;5041653;28;20025;-78
2023/09/06 10:52:08;;;;;;;13.93;7.15;;;;;;;25.04;44.18;95731.19;5023405;28;20033;-78
2023/09/06 10:54:40;;;;;;;16.20;7.25;;;;;;;25.16;43.73;95756.31;5023808;28;20040;-78
2023/09/06 10:57:15;;;;;;;12.25;6.32;;;;;;;24.86;44.57;95714.47;5025630;28;20033;-78
2023/09/06 10:59:57;;;;;;;9.82;6.82;;;;;;;25.07;45.38;95727.78;5026760;28;20028;-78
2023/09/06 11:02:23;;;;;;;11.35;6.65;;;;;;;25.14;46.07;95755.06;5044474;28;20048;-78
2023/09/06 11:05:02;;;;;;;11.15;5.97;;;;;;;24.83;47.06;95734.94;5028098;28;20029;-78
2023/09/06 11:07:37;;;;;;;11.48;6.15;;;;;;;24.84;46.86;95733.81;5027968;28;20033;-78
2023/09/06 11:10:03;;;;;;;11.88;6.80;;;;;;;24.53;48.12;95723.75;5044925;28;20059;-78
2023/09/06 11:12:30;;;;;;;13.70;6.15;;;;;;;24.78;47.35;95745.28;5026964;28;20037;-78
2023/09/06 11:14:55;;;;;;;13.70;6.32;;;;;;;24.74;47.27;95749.81;5027062;28;20017;-78
2023/09/06 11:17:24;;;;;;;14.27;6.68;;;;;;;24.61;47.58;95739.06;5025355;28;20037;-78
2023/09/06 11:19:50;;;;;;;16.15;6.47;;;;;;;24.52;47.77;95745.78;5023486;28;20030;-78
2023/09/06 11:22:16;;;;;;;10.98;6.97;;;;;;;24.66;47.74;95748.84;5023453;28;20026;-78
2023/09/06 11:24:42;;;;;;;11.07;6.47;;;;;;;24.68;47.64;95734.94;5040961;28;20056;-78
2023/09/06 11:27:33;;;;;;;10.57;6.05;;;;;;;24.67;47.52;95706.25;5040474;28;20040;-78
2023/09/06 11:30:10;;;;;;;12.38;6.82;;;;;;;24.93;47.17;95722.81;5021727;28;20524;-78
2023/09/06 11:32:35;;;;;;;9.63;6.53;;;;;;;24.96;46.97;95730.22;5024638;28;20503;-78
2023/09/06 11:35:03;;;;;;;13.45;6.00;;;;;;;24.99;47.87;95733.03;5040760;28;20036;-78